Time;durP1;ratioP1;P1;durP2;ratioP2;P2;SDS_P1;SDS_P2;PMS_P1;PMS_P2;Temp;Humidity;BMP_temperature;BMP_pressure;BME280_temperature;BME280_humidity;BME280_pressure;Samples;Min_cycle;Max_cycle;Signal;HPM_P1;HPM_P2
2023/01/21 00:01:22;;;;;;;23.83;13.50;;;2.40;99.90;;;;;;5046699;28;20290;-48
2023/01/21 00:03:48;;;;;;;26.47;13.03;;;2.40;99.90;;;;;;5033222;28;20207;-50
2023/01/21 00:06:15;;;;;;;29.00;13.63;;;2.30;99.90;;;;;;5045484;28;20192;-49
2023/01/21 00:08:43;;;;;;;25.47;13.70;;;2.30;99.90;;;;;;5029206;28;20246;-50
2023/01/21 00:11:13;;;;;;;21.57;13.23;;;2.30;99.90;;;;;;5038865;28;20219;-48
2023/01/21 00:13:40;;;;;;;23.07;13.23;;;2.30;99.90;;;;;;5045454;28;20583;-49
2023/01/21 00:16:08;;;;;;;26.47;13.47;;;2.30;99.90;;;;;;5043787;28;20191;-46
2023/01/21 00:18:35;;;;;;;26.37;13.57;;;2.30;99.90;;;;;;5039361;28;20210;-45
2023/01/21 00:21:02;;;;;;;24.93;12.40;;;2.30;99.90;;;;;;5042360;28;20972;-45
2023/01/21 00:23:29;;;;;;;26.47;13.67;;;2.30;99.90;;;;;;5029666;28;20211;-48
2023/01/21 00:26:02;;;;;;;24.13;14.33;;;2.30;99.90;;;;;;5039535;28;20206;-50
2023/01/21 00:28:29;;;;;;;23.83;12.33;;;2.30;99.90;;;;;;5046081;28;20599;-47
2023/01/21 00:30:57;;;;;;;24.67;12.87;;;2.20;99.90;;;;;;5042173;28;20219;-47
2023/01/21 00:33:24;;;;;;;21.93;12.77;;;2.20;99.90;;;;;;5045743;28;20285;-49
2023/01/21 00:35:58;;;;;;;19.60;11.43;;;2.20;99.90;;;;;;5032768;28;20659;-51
2023/01/21 00:38:25;;;;;;;20.43;12.73;;;2.20;99.90;;;;;;5029400;28;20195;-51
2023/01/21 00:40:52;;;;;;;20.70;12.57;;;2.20;99.90;;;;;;5041953;28;20231;-49
2023/01/21 00:43:20;;;;;;;25.60;13.07;;;2.20;99.90;;;;;;5045473;28;20210;-51
2023/01/21 00:45:47;;;;;;;19.77;12.83;;;2.10;99.90;;;;;;5043971;28;20203;-51
2023/01/21 00:48:13;;;;;;;21.00;13.07;;;2.10;99.90;;;;;;5044336;28;20219;-50
2023/01/21 00:50:41;;;;;;;21.77;12.63;;;2.10;99.90;;;;;;5036468;28;20227;-50
2023/01/21 00:53:08;;;;;;;22.67;12.63;;;2.10;99.90;;;;;;5042957;28;20195;-48
2023/01/21 00:55:35;;;;;;;24.47;13.37;;;2.00;99.90;;;;;;5028587;28;20548;-48
2023/01/21 00:58:02;;;;;;;22.07;12.70;;;2.10;99.90;;;;;;5041943;28;20191;-45
2023/01/21 01:00:31;;;;;;;17.00;11.00;;;2.10;99.90;;;;;;5045539;28;20219;-45
2023/01/21 01:02:58;;;;;;;22.10;12.67;;;2.00;99.90;;;;;;5041276;28;20861;-47
2023/01/21 01:05:25;;;;;;;25.47;14.00;;;2.00;99.90;;;;;;5039722;28;20239;-49
2023/01/21 01:07:52;;;;;;;23.13;12.00;;;2.00;99.90;;;;;;5042366;28;20216;-53
2023/01/21 01:10:18;;;;;;;25.57;14.10;;;2.00;99.90;;;;;;5028111;28;20215;-51
2023/01/21 01:12:45;;;;;;;23.20;12.03;;;2.00;99.90;;;;;;5042876;28;20203;-49
2023/01/21 01:15:12;;;;;;;21.90;12.97;;;2.00;99.90;;;;;;5043799;28;20195;-47
2023/01/21 01:17:41;;;;;;;19.13;11.80;;;1.90;99.90;;;;;;5044761;28;20206;-50
2023/01/21 01:20:09;;;;;;;16.67;11.03;;;1.90;99.90;;;;;;5034359;28;20413;-45
2023/01/21 01:22:36;;;;;;;18.93;11.43;;;1.90;99.90;;;;;;5044782;28;20207;-52
2023/01/21 01:25:03;;;;;;;17.83;11.07;;;1.80;99.90;;;;;;5041613;28;20192;-46
2023/01/21 01:27:30;;;;;;;24.53;12.17;;;1.80;99.90;;;;;;5028471;28;20203;-47
2023/01/21 01:29:57;;;;;;;19.87;12.10;;;1.70;99.90;;;;;;5037859;28;20207;-46
2023/01/21 01:32:23;;;;;;;23.87;11.70;;;1.70;99.90;;;;;;5037946;28;20249;-47
2023/01/21 01:34:51;;;;;;;19.77;11.77;;;1.60;99.90;;;;;;5038640;28;20205;-52
2023/01/21 01:37:18;;;;;;;20.70;12.20;;;1.60;99.90;;;;;;5042437;28;20207;-50
2023/01/21 01:39:45;;;;;;;21.77;12.07;;;1.60;99.90;;;;;;5039012;28;20223;-48
2023/01/21 01:42:16;;;;;;;18.97;11.60;;;1.60;99.90;;;;;;5017492;28;24521;-48
2023/01/21 01:45:00;;;;;;;23.40;12.97;;;1.50;99.90;;;;;;5043047;28;20215;-49
2023/01/21 01:47:32;;;;;;;17.70;10.47;;;1.60;99.90;;;;;;5038992;28;20543;-47
2023/01/21 01:50:02;;;;;;;19.37;11.57;;;1.60;99.90;;;;;;5034078;28;20221;-46
2023/01/21 01:52:30;;;;;;;22.33;11.83;;;1.70;99.90;;;;;;5039912;28;20203;-47
2023/01/21 01:55:00;;;;;;;22.60;12.13;;;1.70;99.90;;;;;;5040505;28;20204;-49
2023/01/21 01:57:33;;;;;;;23.10;12.17;;;1.70;99.90;;;;;;5044692;28;20210;-50
2023/01/21 02:00:03;;;;;;;27.03;12.97;;;1.60;99.90;;;;;;5023044;28;20223;-47
2023/01/21 02:02:38;;;;;;;18.90;11.80;;;1.70;99.90;;;;;;5044422;28;20818;-51
2023/01/21 02:05:09;;;;;;;20.43;12.70;;;1.70;99.90;;;;;;5041332;28;20291;-45
2023/01/21 02:07:39;;;;;;;21.43;12.70;;;1.70;99.90;;;;;;5036703;28;20199;-51
2023/01/21 02:10:08;;;;;;;20.93;11.97;;;1.70;99.90;;;;;;5041363;28;20234;-49
2023/01/21 02:12:36;;;;;;;20.37;11.50;;;1.80;99.90;;;;;;5043317;28;20200;-47
2023/01/21 02:15:04;;;;;;;19.37;12.37;;;1.80;99.90;;;;;;5023416;28;20269;-45
2023/01/21 02:17:44;;;;;;;17.87;12.40;;;1.80;99.90;;;;;;5042722;28;20214;-49
2023/01/21 02:20:41;;;;;;;21.20;12.40;;;1.80;99.90;;;;;;5039250;28;20207;-48
2023/01/21 02:23:16;;;;;;;22.07;12.30;;;1.80;99.90;;;;;;5035432;28;20210;-47
2023/01/21 02:26:10;;;;;;;21.27;13.03;;;1.80;99.90;;;;;;5042242;28;20677;-52
2023/01/21 02:29:13;;;;;;;24.63;12.50;;;1.90;99.90;;;;;;5034629;28;20218;-50
2023/01/21 02:32:08;;;;;;;20.33;12.40;;;1.90;99.90;;;;;;5037223;28;20276;-51
2023/01/21 02:34:43;;;;;;;25.87;13.13;;;1.90;99.90;;;;;;5041590;28;20199;-48
2023/01/21 02:37:13;;;;;;;23.17;12.80;;;1.90;99.90;;;;;;5041855;28;20202;-49
2023/01/21 02:40:09;;;;;;;22.73;11.90;;;1.90;99.90;;;;;;5033703;28;20215;-52
2023/01/21 02:42:41;;;;;;;23.70;12.17;;;1.90;99.90;;;;;;5039768;28;20584;-52
2023/01/21 02:45:19;;;;;;;23.03;12.70;;;1.90;99.90;;;;;;5024438;28;20356;-48
2023/01/21 02:47:54;;;;;;;25.17;13.33;;;1.90;99.90;;;;;;5041373;28;20203;-49
2023/01/21 02:50:26;;;;;;;23.43;13.70;;;1.90;99.90;;;;;;5043368;28;20217;-50
2023/01/21 02:52:57;;;;;;;24.90;12.83;;;1.90;99.90;;;;;;5034116;28;20207;-53
2023/01/21 02:55:28;;;;;;;25.77;13.30;;;2.00;99.90;;;;;;5033120;28;20211;-48
2023/01/21 02:57:59;;;;;;;27.60;14.67;;;1.90;99.90;;;;;;5039251;28;20203;-49
2023/01/21 03:00:29;;;;;;;24.17;13.00;;;1.90;99.90;;;;;;5026568;28;20316;-46
2023/01/21 03:03:18;;;;;;;25.87;13.67;;;2.00;99.90;;;;;;5039096;28;20195;-50
2023/01/21 03:06:13;;;;;;;21.57;12.97;;;2.00;99.90;;;;;;5040180;28;20225;-53
2023/01/21 03:08:45;;;;;;;24.13;13.77;;;2.00;99.90;;;;;;5038553;28;20685;-49
2023/01/21 03:11:15;;;;;;;26.73;14.10;;;1.90;99.90;;;;;;5035201;28;20340;-49
2023/01/21 03:19:25;;;;;;;29.10;14.73;;;1.90;99.90;;;;;;5042375;28;20227;-50
2023/01/21 03:21:55;;;;;;;22.03;13.67;;;1.90;99.90;;;;;;5039796;28;20210;-52
2023/01/21 03:24:24;;;;;;;22.63;13.33;;;1.90;99.90;;;;;;5043342;28;20203;-47
2023/01/21 03:26:54;;;;;;;26.53;13.93;;;1.90;99.90;;;;;;5029201;28;20211;-50
2023/01/21 03:29:23;;;;;;;26.37;13.90;;;1.90;99.90;;;;;;5043208;28;20266;-46
2023/01/21 03:31:56;;;;;;;25.07;14.63;;;1.90;99.90;;;;;;5023648;28;20215;-50
2023/01/21 03:34:27;;;;;;;26.93;14.43;;;1.90;99.90;;;;;;5040531;28;20270;-50
2023/01/21 03:37:02;;;;;;;25.20;14.23;;;1.90;99.90;;;;;;5039164;28;20658;-50
2023/01/21 03:39:34;;;;;;;27.70;14.57;;;2.00;99.90;;;;;;5043158;28;20226;-46
2023/01/21 03:42:02;;;;;;;22.60;13.40;;;2.00;99.90;;;;;;5026586;28;20206;-48
2023/01/21 03:44:29;;;;;;;24.20;14.67;;;2.00;99.90;;;;;;5043135;28;20199;-48
2023/01/21 03:47:03;;;;;;;28.13;15.83;;;1.90;99.90;;;;;;5022621;28;20853;-50
2023/01/21 03:49:34;;;;;;;27.80;14.93;;;2.00;99.90;;;;;;5037404;28;20240;-45
2023/01/21 03:52:05;;;;;;;27.13;14.87;;;2.00;99.90;;;;;;5038658;28;20191;-48
2023/01/21 03:54:32;;;;;;;26.33;13.70;;;2.00;99.90;;;;;;5043146;28;20291;-51
2023/01/21 03:56:59;;;;;;;25.53;14.57;;;2.00;99.90;;;;;;5032924;28;20187;-49
2023/01/21 03:59:26;;;;;;;26.73;15.47;;;1.90;99.90;;;;;;5038724;28;20286;-48
2023/01/21 04:01:53;;;;;;;28.07;16.27;;;2.00;99.90;;;;;;5022684;28;20547;-52
2023/01/21 04:04:20;;;;;;;27.40;15.60;;;2.00;99.90;;;;;;5040886;28;20203;-48
2023/01/21 04:06:47;;;;;;;27.03;15.63;;;2.00;99.90;;;;;;5041039;28;20564;-54
2023/01/21 04:09:15;;;;;;;33.03;15.33;;;2.00;99.90;;;;;;5041363;28;20925;-53
2023/01/21 04:11:42;;;;;;;28.57;15.67;;;2.00;99.90;;;;;;5045376;28;20256;-54
2023/01/21 04:14:08;;;;;;;26.73;14.50;;;2.00;99.90;;;;;;5036158;28;20249;-53
2023/01/21 04:16:36;;;;;;;29.87;15.17;;;2.00;99.90;;;;;;5042204;28;20194;-51
2023/01/21 04:19:04;;;;;;;26.07;14.43;;;2.00;99.90;;;;;;5027404;28;20192;-50
2023/01/21 04:21:31;;;;;;;26.97;15.13;;;2.00;99.90;;;;;;5046685;28;20210;-52
2023/01/21 04:23:58;;;;;;;30.83;16.30;;;2.00;99.90;;;;;;5042154;28;20204;-47
2023/01/21 04:26:26;;;;;;;29.73;14.90;;;2.00;99.90;;;;;;5046601;28;20210;-52
2023/01/21 04:28:53;;;;;;;28.97;16.13;;;2.00;99.90;;;;;;5031203;28;20223;-53
2023/01/21 04:31:20;;;;;;;29.67;15.80;;;2.00;99.90;;;;;;5046132;28;20203;-47
2023/01/21 04:33:47;;;;;;;28.27;16.10;;;2.00;99.90;;;;;;5027148;28;20250;-52
2023/01/21 04:36:14;;;;;;;27.83;15.60;;;2.00;99.90;;;;;;5044026;28;20205;-46
2023/01/21 04:38:41;;;;;;;33.00;16.60;;;2.10;99.90;;;;;;5045385;28;20270;-51
2023/01/21 04:41:08;;;;;;;29.50;15.60;;;2.10;99.90;;;;;;5037194;28;21000;-47
2023/01/21 04:43:36;;;;;;;29.30;15.10;;;2.10;99.90;;;;;;5042756;28;20207;-46
2023/01/21 04:46:03;;;;;;;31.03;16.73;;;2.10;99.90;;;;;;5036382;28;20203;-48
2023/01/21 04:48:30;;;;;;;28.97;15.67;;;2.10;99.90;;;;;;5028850;28;20207;-46
2023/01/21 04:50:57;;;;;;;31.30;15.70;;;2.10;99.90;;;;;;5036904;28;20888;-46
2023/01/21 04:53:24;;;;;;;32.27;16.30;;;2.10;99.90;;;;;;5044991;28;20211;-45
2023/01/21 04:55:51;;;;;;;31.60;16.40;;;2.00;99.90;;;;;;5042970;28;20558;-54
2023/01/21 04:58:19;;;;;;;32.97;15.83;;;2.00;99.90;;;;;;5045349;28;20564;-45
2023/01/21 05:00:47;;;;;;;31.23;15.27;;;2.00;99.90;;;;;;5037838;28;20215;-53
2023/01/21 05:03:15;;;;;;;29.13;15.63;;;2.10;99.90;;;;;;5044193;28;20199;-46
2023/01/21 05:05:42;;;;;;;31.50;15.93;;;2.10;99.90;;;;;;5026884;28;20297;-47
2023/01/21 05:08:09;;;;;;;31.70;14.50;;;2.00;99.90;;;;;;5042722;28;20192;-47
2023/01/21 05:10:36;;;;;;;31.57;15.77;;;2.10;99.90;;;;;;5045215;28;20233;-47
2023/01/21 05:13:03;;;;;;;30.57;16.30;;;2.10;99.90;;;;;;5041876;28;20199;-48
2023/01/21 05:15:30;;;;;;;32.47;16.00;;;2.10;99.90;;;;;;5039408;28;20199;-46
2023/01/21 05:17:59;;;;;;;31.77;16.00;;;2.10;99.90;;;;;;5037379;28;20195;-46
2023/01/21 05:20:26;;;;;;;31.67;15.83;;;2.10;99.90;;;;;;5027750;28;20302;-45
2023/01/21 05:22:52;;;;;;;31.57;16.17;;;2.10;99.90;;;;;;5040107;28;20211;-50
2023/01/21 05:25:20;;;;;;;31.83;16.00;;;2.10;99.90;;;;;;5044435;28;20195;-45
2023/01/21 05:27:51;;;;;;;29.77;15.70;;;2.00;99.90;;;;;;5042485;28;20653;-50
2023/01/21 05:30:18;;;;;;;28.70;15.63;;;1.90;99.90;;;;;;5037545;28;20235;-45
2023/01/21 05:32:44;;;;;;;27.37;13.77;;;1.90;99.90;;;;;;5042240;28;20206;-53
2023/01/21 05:35:13;;;;;;;26.50;13.63;;;1.90;99.90;;;;;;5025279;28;20207;-46
2023/01/21 05:37:40;;;;;;;27.73;14.67;;;1.90;99.90;;;;;;5043885;28;20199;-49
2023/01/21 05:40:08;;;;;;;26.27;14.47;;;1.90;99.90;;;;;;5036311;28;21152;-49
2023/01/21 05:42:34;;;;;;;29.60;15.33;;;1.90;99.90;;;;;;5043239;28;20286;-46
2023/01/21 05:45:01;;;;;;;28.53;13.93;;;1.90;99.90;;;;;;5040875;28;20195;-49
2023/01/21 05:47:28;;;;;;;28.70;14.63;;;1.90;99.90;;;;;;5035360;28;20208;-48
2023/01/21 05:49:55;;;;;;;27.07;14.03;;;1.90;99.90;;;;;;5040877;28;20686;-48
2023/01/21 05:52:23;;;;;;;28.03;14.90;;;1.90;99.90;;;;;;5027542;28;20222;-46
2023/01/21 05:54:50;;;;;;;30.17;14.37;;;1.90;99.90;;;;;;5041504;28;20665;-51
2023/01/21 05:57:17;;;;;;;26.70;13.47;;;1.90;99.90;;;;;;5043340;28;20206;-46
2023/01/21 05:59:43;;;;;;;30.90;14.67;;;1.90;99.90;;;;;;5042796;28;20638;-50
2023/01/21 06:02:11;;;;;;;31.53;15.23;;;1.80;99.90;;;;;;5034422;28;20196;-45
2023/01/21 06:04:38;;;;;;;33.30;16.23;;;1.80;99.90;;;;;;5044053;28;20203;-48
2023/01/21 06:07:05;;;;;;;30.73;14.83;;;1.80;99.90;;;;;;5024442;28;20285;-47
2023/01/21 06:09:33;;;;;;;31.00;16.30;;;1.80;99.90;;;;;;5042998;28;20211;-45
2023/01/21 06:12:00;;;;;;;39.10;16.13;;;1.90;99.90;;;;;;5034534;28;20202;-48
2023/01/21 06:14:27;;;;;;;37.07;17.17;;;1.80;99.90;;;;;;5043907;28;20207;-47
2023/01/21 06:16:54;;;;;;;34.77;16.60;;;1.80;99.90;;;;;;5035280;28;20203;-50
2023/01/21 06:19:21;;;;;;;38.83;18.03;;;1.80;99.90;;;;;;5039160;28;20211;-49
2023/01/21 06:21:48;;;;;;;41.10;18.80;;;1.80;99.90;;;;;;5041367;28;20558;-51
2023/01/21 06:24:16;;;;;;;39.57;18.50;;;1.80;99.90;;;;;;5026505;28;20588;-48
2023/01/21 06:26:44;;;;;;;37.67;18.03;;;1.80;99.90;;;;;;5041858;28;20253;-53
2023/01/21 06:29:11;;;;;;;32.60;17.07;;;1.80;99.90;;;;;;5042021;28;20196;-48
2023/01/21 06:31:38;;;;;;;39.03;17.50;;;1.80;99.90;;;;;;5043795;28;20207;-51
2023/01/21 06:34:06;;;;;;;31.27;15.23;;;1.90;99.90;;;;;;5031942;28;20195;-47
2023/01/21 06:36:33;;;;;;;30.33;16.27;;;1.80;99.90;;;;;;5039853;28;20204;-46
2023/01/21 06:39:22;;;;;;;31.90;15.53;;;1.80;99.90;;;;;;5027467;28;20602;-45
2023/01/21 06:41:50;;;;;;;32.93;16.17;;;1.80;99.90;;;;;;5040494;28;20211;-52
2023/01/21 06:44:17;;;;;;;30.67;15.00;;;1.80;99.90;;;;;;5042904;28;20207;-45
2023/01/21 06:46:44;;;;;;;32.27;16.23;;;1.80;99.90;;;;;;5040938;28;20208;-53
2023/01/21 06:49:11;;;;;;;34.13;15.63;;;1.80;99.90;;;;;;5036912;28;20234;-46
2023/01/21 06:51:38;;;;;;;33.37;16.80;;;1.80;99.90;;;;;;5025642;28;20195;-50
2023/01/21 06:54:06;;;;;;;29.90;15.40;;;1.70;99.90;;;;;;5026570;28;20210;-46
2023/01/21 06:56:33;;;;;;;33.03;16.03;;;1.80;99.90;;;;;;5033599;28;20250;-47
2023/01/21 06:59:01;;;;;;;32.67;15.07;;;1.80;99.90;;;;;;5042889;28;20195;-45
2023/01/21 07:01:28;;;;;;;31.53;16.30;;;1.80;99.90;;;;;;5030774;28;20893;-49
2023/01/21 07:03:55;;;;;;;34.90;16.57;;;1.70;99.90;;;;;;5034089;28;20203;-46
2023/01/21 07:06:22;;;;;;;33.37;16.37;;;1.80;99.90;;;;;;5033120;28;20199;-50
2023/01/21 07:08:49;;;;;;;31.37;15.53;;;1.70;99.90;;;;;;5020507;28;20574;-50
2023/01/21 07:11:15;;;;;;;29.73;15.07;;;1.70;99.90;;;;;;5033374;28;20249;-46
2023/01/21 07:13:42;;;;;;;31.57;15.17;;;1.70;99.90;;;;;;5033024;28;20210;-55
2023/01/21 07:16:29;;;;;;;30.53;15.60;;;1.70;99.90;;;;;;5038442;28;20210;-47
2023/01/21 07:18:56;;;;;;;30.17;15.47;;;1.70;99.90;;;;;;5029544;28;20881;-45
2023/01/21 07:21:24;;;;;;;34.20;16.53;;;1.70;99.90;;;;;;5030773;28;20202;-46
2023/01/21 07:23:52;;;;;;;32.23;16.07;;;1.70;99.90;;;;;;5032396;28;20565;-50
2023/01/21 07:26:19;;;;;;;29.73;15.70;;;1.70;99.90;;;;;;5020581;28;20218;-47
2023/01/21 07:28:46;;;;;;;30.23;16.23;;;1.70;99.90;;;;;;5029043;28;20215;-53
2023/01/21 07:31:13;;;;;;;34.90;17.57;;;1.70;99.90;;;;;;5037516;28;20218;-45
2023/01/21 07:33:41;;;;;;;35.43;17.73;;;1.70;99.90;;;;;;5033893;28;20230;-51
2023/01/21 07:36:09;;;;;;;28.23;15.47;;;1.70;99.90;;;;;;5025930;28;20207;-47
2023/01/21 07:38:36;;;;;;;34.97;15.70;;;1.70;99.90;;;;;;5036104;28;20847;-51
2023/01/21 07:41:02;;;;;;;29.43;15.73;;;1.70;99.90;;;;;;5014116;28;20211;-47
2023/01/21 07:43:29;;;;;;;28.57;14.70;;;1.70;99.90;;;;;;5035143;28;20221;-45
2023/01/21 07:45:58;;;;;;;40.40;16.50;;;1.70;99.90;;;;;;5036146;28;20443;-49
2023/01/21 07:48:25;;;;;;;36.53;16.77;;;1.60;99.90;;;;;;5040090;28;20657;-50
2023/01/21 07:50:56;;;;;;;41.10;16.60;;;1.60;99.90;;;;;;5027743;28;20224;-51
2023/01/21 07:53:24;;;;;;;42.43;17.50;;;1.60;99.90;;;;;;5035615;28;20230;-47
2023/01/21 07:55:51;;;;;;;35.13;15.93;;;1.60;99.90;;;;;;5019044;28;20196;-51
2023/01/21 07:58:18;;;;;;;31.33;15.40;;;1.60;99.90;;;;;;5034535;28;20242;-46
2023/01/21 08:00:45;;;;;;;35.53;16.03;;;1.70;99.90;;;;;;5043161;28;20218;-51
2023/01/21 08:03:12;;;;;;;29.60;16.03;;;1.60;99.90;;;;;;5033962;28;20198;-47
2023/01/21 08:05:39;;;;;;;34.27;15.33;;;1.70;99.90;;;;;;5036653;28;20199;-52
2023/01/21 08:08:07;;;;;;;37.97;16.13;;;1.70;99.90;;;;;;5028466;28;20334;-45
2023/01/21 08:10:33;;;;;;;31.00;15.60;;;1.70;99.90;;;;;;5040028;28;20273;-49
2023/01/21 08:13:02;;;;;;;55.47;16.60;;;1.60;99.90;;;;;;5017159;28;20481;-46
2023/01/21 08:15:29;;;;;;;63.53;16.20;;;1.60;99.90;;;;;;5039568;28;20191;-47
2023/01/21 08:17:57;;;;;;;56.00;18.00;;;1.60;99.90;;;;;;5042206;28;20188;-45
2023/01/21 08:20:23;;;;;;;53.23;15.40;;;1.60;99.90;;;;;;5041596;28;20691;-48
2023/01/21 08:22:50;;;;;;;40.47;15.23;;;1.50;99.90;;;;;;5028475;28;20200;-52
2023/01/21 08:25:18;;;;;;;36.13;15.00;;;1.50;99.90;;;;;;5033164;28;20239;-49
2023/01/21 08:27:45;;;;;;;33.60;13.90;;;1.50;99.90;;;;;;5014732;28;20211;-52
2023/01/21 08:30:33;;;;;;;27.97;14.40;;;1.50;99.90;;;;;;5041974;28;20229;-48
2023/01/21 08:33:01;;;;;;;37.07;14.23;;;1.50;99.90;;;;;;5036457;28;20217;-46
2023/01/21 08:35:28;;;;;;;29.00;12.13;;;1.50;99.90;;;;;;5039489;28;20246;-47
2023/01/21 08:37:56;;;;;;;32.83;14.63;;;1.50;99.90;;;;;;5023208;28;20211;-46
2023/01/21 08:40:26;;;;;;;35.83;14.13;;;1.50;99.90;;;;;;5025907;28;20242;-48
2023/01/21 08:42:52;;;;;;;30.23;13.73;;;1.50;99.90;;;;;;5024517;28;20234;-50
2023/01/21 08:45:20;;;;;;;36.37;15.43;;;1.50;99.90;;;;;;5043200;28;20206;-52
2023/01/21 08:47:47;;;;;;;32.93;14.57;;;1.50;99.90;;;;;;5043045;28;20195;-45
2023/01/21 08:50:14;;;;;;;28.03;13.70;;;1.50;99.90;;;;;;5043715;28;20219;-51
2023/01/21 08:52:41;;;;;;;35.20;15.60;;;1.50;99.90;;;;;;5034140;28;20786;-46
2023/01/21 08:55:09;;;;;;;28.70;13.30;;;1.50;99.90;;;;;;5042747;28;20639;-48
2023/01/21 08:57:37;;;;;;;31.53;13.57;;;1.50;99.90;;;;;;5025092;28;21892;-51
2023/01/21 09:00:05;;;;;;;28.23;12.77;;;1.60;99.90;;;;;;5045174;28;20227;-50
2023/01/21 09:02:32;;;;;;;29.87;13.27;;;1.60;99.90;;;;;;5042158;28;20227;-50
2023/01/21 09:04:59;;;;;;;25.43;13.30;;;1.50;99.90;;;;;;5045807;28;20195;-45
2023/01/21 09:07:26;;;;;;;29.13;12.57;;;1.60;99.90;;;;;;5043920;28;20206;-47
2023/01/21 09:09:53;;;;;;;28.43;13.50;;;1.60;99.90;;;;;;5037721;28;20987;-49
2023/01/21 09:12:21;;;;;;;23.83;12.43;;;1.60;99.90;;;;;;5038263;28;20226;-54
2023/01/21 09:14:50;;;;;;;24.93;12.50;;;1.60;99.90;;;;;;5034630;28;20790;-49
2023/01/21 09:17:17;;;;;;;23.17;11.77;;;1.60;99.90;;;;;;5045561;28;20203;-49
2023/01/21 09:19:44;;;;;;;32.07;12.50;;;1.60;99.90;;;;;;5041880;28;20248;-45
2023/01/21 09:22:12;;;;;;;26.17;12.67;;;1.60;99.90;;;;;;5034592;28;20199;-48
2023/01/21 09:24:39;;;;;;;27.13;13.20;;;1.60;99.90;;;;;;5030551;28;20195;-46
2023/01/21 09:27:07;;;;;;;26.47;12.27;;;1.60;99.90;;;;;;5045710;28;20246;-48
2023/01/21 09:29:34;;;;;;;23.03;12.27;;;1.60;99.90;;;;;;5025218;28;20230;-53
2023/01/21 09:32:04;;;;;;;25.83;12.23;;;1.70;99.90;;;;;;5044891;28;20292;-49
2023/01/21 09:34:31;;;;;;;26.07;12.33;;;1.70;99.90;;;;;;5042096;28;20285;-49
2023/01/21 09:36:58;;;;;;;24.83;12.00;;;1.70;99.90;;;;;;5044777;28;20210;-48
2023/01/21 09:39:25;;;;;;;28.37;13.43;;;1.70;99.90;;;;;;5041919;28;20674;-52
2023/01/21 09:41:54;;;;;;;27.47;13.57;;;1.80;99.90;;;;;;5037090;28;20199;-46
2023/01/21 09:44:27;;;;;;;26.33;11.57;;;1.80;99.90;;;;;;5038463;28;20202;-48
2023/01/21 09:46:57;;;;;;;30.53;13.10;;;1.80;99.90;;;;;;5037334;28;20204;-46
2023/01/21 09:49:30;;;;;;;27.20;13.20;;;1.90;99.90;;;;;;5043099;28;20222;-51
2023/01/21 09:52:05;;;;;;;27.53;14.30;;;1.90;99.90;;;;;;5043427;28;20226;-49
2023/01/21 09:54:35;;;;;;;27.13;12.77;;;1.90;99.90;;;;;;5040256;28;20199;-52
2023/01/21 09:57:28;;;;;;;29.30;13.93;;;1.90;99.90;;;;;;5034372;28;20207;-50
2023/01/21 10:00:07;;;;;;;25.23;13.03;;;1.90;99.90;;;;;;5043590;28;20932;-45
2023/01/21 10:02:47;;;;;;;28.57;12.33;;;1.90;99.90;;;;;;5024136;28;20205;-46
2023/01/21 10:05:42;;;;;;;29.47;13.10;;;1.90;99.90;;;;;;5041765;28;20214;-45
2023/01/21 10:08:17;;;;;;;34.13;14.50;;;2.00;99.90;;;;;;5044336;28;20211;-46
2023/01/21 10:10:49;;;;;;;29.37;14.23;;;2.10;99.90;;;;;;5034210;28;20226;-48
2023/01/21 10:13:34;;;;;;;28.60;13.57;;;2.10;99.90;;;;;;5043660;28;20206;-48
2023/01/21 10:16:09;;;;;;;31.87;14.83;;;2.10;99.90;;;;;;5044623;28;20200;-46
2023/01/21 10:18:39;;;;;;;33.10;14.07;;;2.20;99.90;;;;;;5023904;28;21113;-49
2023/01/21 10:21:16;;;;;;;26.07;13.37;;;2.30;99.90;;;;;;5041800;28;20226;-49
2023/01/21 10:23:47;;;;;;;27.83;14.53;;;2.30;99.90;;;;;;5040001;28;20198;-47
2023/01/21 10:26:15;;;;;;;29.80;13.53;;;2.30;99.90;;;;;;5044021;28;20207;-50
2023/01/21 10:28:47;;;;;;;29.40;14.20;;;2.30;99.90;;;;;;5029349;28;20260;-47
2023/01/21 10:31:21;;;;;;;28.43;13.50;;;2.30;99.90;;;;;;5044141;28;20219;-45
2023/01/21 10:33:49;;;;;;;28.50;12.97;;;2.30;99.90;;;;;;5031924;28;20927;-46
2023/01/21 10:36:40;;;;;;;23.67;12.87;;;2.40;99.90;;;;;;5041475;28;20202;-52
2023/01/21 10:39:16;;;;;;;24.53;12.87;;;2.40;99.90;;;;;;5041236;28;20203;-50
2023/01/21 10:42:11;;;;;;;24.77;13.17;;;2.30;99.90;;;;;;5040084;28;20934;-45
2023/01/21 10:44:45;;;;;;;27.40;14.30;;;2.40;99.90;;;;;;5028572;28;20298;-47
2023/01/21 10:47:24;;;;;;;27.27;13.83;;;2.50;99.90;;;;;;5043990;28;20210;-45
2023/01/21 10:49:58;;;;;;;26.30;13.30;;;2.60;99.90;;;;;;5025997;28;20971;-45
2023/01/21 10:52:36;;;;;;;24.97;13.43;;;2.60;99.90;;;;;;5036387;28;20227;-50
2023/01/21 10:55:15;;;;;;;24.27;13.17;;;2.60;99.90;;;;;;5042931;28;20206;-45
2023/01/21 10:57:55;;;;;;;25.63;13.10;;;2.60;99.90;;;;;;5034102;28;20795;-46
2023/01/21 11:00:25;;;;;;;28.13;14.27;;;2.60;99.90;;;;;;5031009;28;20318;-52
2023/01/21 11:02:55;;;;;;;23.13;12.20;;;2.60;99.90;;;;;;5039769;28;20187;-46
2023/01/21 11:05:24;;;;;;;24.87;12.67;;;2.70;99.90;;;;;;5025955;28;20211;-49
2023/01/21 11:07:53;;;;;;;27.20;14.37;;;2.80;99.90;;;;;;5041074;28;20219;-45
2023/01/21 11:10:23;;;;;;;23.17;13.27;;;2.80;99.90;;;;;;5042067;28;20223;-53
2023/01/21 11:12:50;;;;;;;25.33;13.93;;;2.90;99.90;;;;;;5040225;28;20933;-45
2023/01/21 11:15:19;;;;;;;21.20;11.77;;;2.90;99.90;;;;;;5035990;28;20214;-53
2023/01/21 11:17:49;;;;;;;22.10;13.50;;;2.90;99.90;;;;;;5040534;28;20751;-47
2023/01/21 11:20:22;;;;;;;19.00;11.53;;;2.90;99.90;;;;;;5021030;28;20282;-49
2023/01/21 11:22:50;;;;;;;23.03;12.70;;;2.90;99.90;;;;;;5040095;28;20266;-48
2023/01/21 11:25:39;;;;;;;19.47;11.33;;;3.00;99.90;;;;;;5042817;28;20271;-48
2023/01/21 11:28:22;;;;;;;23.03;12.43;;;3.00;99.90;;;;;;5038712;28;20867;-47
2023/01/21 11:30:49;;;;;;;24.77;13.67;;;3.00;99.90;;;;;;5029407;28;20300;-50
2023/01/21 11:33:23;;;;;;;22.70;11.90;;;3.00;99.90;;;;;;5042483;28;20196;-49
2023/01/21 11:35:52;;;;;;;22.53;11.73;;;3.00;99.90;;;;;;5024840;28;20199;-48
2023/01/21 11:38:25;;;;;;;21.33;12.50;;;3.00;99.90;;;;;;5042071;28;20199;-51
2023/01/21 11:41:14;;;;;;;24.00;12.93;;;3.10;99.90;;;;;;5041224;28;20223;-47
2023/01/21 11:43:43;;;;;;;19.20;11.67;;;3.10;99.90;;;;;;5034409;28;20195;-46
2023/01/21 11:46:28;;;;;;;19.47;12.13;;;3.10;99.90;;;;;;5035543;28;20199;-50
2023/01/21 11:48:57;;;;;;;21.20;12.93;;;3.10;99.90;;;;;;5040625;28;20202;-48
2023/01/21 11:51:25;;;;;;;18.40;11.80;;;3.10;99.90;;;;;;5021784;28;20219;-49
2023/01/21 11:54:08;;;;;;;18.07;11.63;;;3.00;99.90;;;;;;5040759;28;20202;-46
2023/01/21 11:56:36;;;;;;;21.50;12.47;;;3.10;99.90;;;;;;5032941;28;20199;-48
2023/01/21 11:59:13;;;;;;;22.17;12.07;;;3.10;99.90;;;;;;5042859;28;20203;-47
2023/01/21 12:01:40;;;;;;;22.67;12.73;;;3.20;99.90;;;;;;5032680;28;20187;-47
2023/01/21 12:04:13;;;;;;;21.17;11.53;;;3.30;99.90;;;;;;5038351;28;20226;-45
2023/01/21 12:06:46;;;;;;;24.37;13.50;;;3.30;99.90;;;;;;5022414;28;21022;-46
2023/01/21 12:09:18;;;;;;;21.50;12.60;;;3.30;99.90;;;;;;5042451;28;20213;-51
2023/01/21 12:12:01;;;;;;;21.10;11.73;;;3.30;99.90;;;;;;5038782;28;20214;-51
2023/01/21 12:14:37;;;;;;;20.33;12.57;;;3.30;99.90;;;;;;5040325;28;20662;-51
2023/01/21 12:17:14;;;;;;;23.00;13.03;;;3.30;99.90;;;;;;5028212;28;20204;-48
2023/01/21 12:20:17;;;;;;;21.70;13.30;;;3.30;99.90;;;;;;5042388;28;20251;-49
2023/01/21 12:23:02;;;;;;;22.50;12.97;;;3.30;99.90;;;;;;5026471;28;20191;-48
2023/01/21 12:25:40;;;;;;;22.57;13.00;;;3.40;99.90;;;;;;5038732;28;20214;-50
2023/01/21 12:28:26;;;;;;;24.70;13.53;;;3.40;99.90;;;;;;5042508;28;20209;-48
2023/01/21 12:31:01;;;;;;;22.37;12.73;;;3.50;99.90;;;;;;5041795;28;20304;-49
2023/01/21 12:33:42;;;;;;;19.67;11.70;;;3.50;99.90;;;;;;5034161;28;20210;-50
2023/01/21 12:36:14;;;;;;;18.90;12.10;;;3.50;99.90;;;;;;5046140;28;20218;-49
2023/01/21 12:38:44;;;;;;;24.73;13.23;;;3.60;99.90;;;;;;5024721;28;20903;-47
2023/01/21 12:41:16;;;;;;;21.77;11.60;;;3.60;99.90;;;;;;5045441;28;20239;-45
2023/01/21 12:43:47;;;;;;;19.53;12.10;;;3.70;99.90;;;;;;5042222;28;20229;-51
2023/01/21 12:46:18;;;;;;;19.07;11.80;;;3.70;99.90;;;;;;5046038;28;20210;-53
2023/01/21 12:48:48;;;;;;;20.20;11.47;;;3.70;99.90;;;;;;5032771;28;20944;-48
2023/01/21 12:51:21;;;;;;;18.60;11.90;;;3.80;99.90;;;;;;5044843;28;20303;-47
2023/01/21 12:53:54;;;;;;;17.47;10.23;;;3.90;99.90;;;;;;5019749;28;20218;-50
2023/01/21 12:56:30;;;;;;;16.27;11.37;;;3.90;99.90;;;;;;5041738;28;20286;-51
2023/01/21 12:59:05;;;;;;;17.90;11.03;;;4.00;99.90;;;;;;5045049;28;20209;-45